createdAt,value
2023-01-28T00:02:57.434Z,1031.8
2023-01-28T00:07:55.147Z,1031.7
2023-01-28T00:12:54.879Z,1031.7
2023-01-28T00:17:54.566Z,1031.7
2023-01-28T00:22:54.274Z,1031.5
2023-01-28T00:27:53.957Z,1031.6
2023-01-28T00:32:53.708Z,1031.6
2023-01-28T00:37:53.424Z,1031.6
2023-01-28T00:42:53.145Z,1031.6
2023-01-28T00:47:52.915Z,1031.6
2023-01-28T00:52:52.649Z,1031.6
2023-01-28T00:57:52.514Z,1031.6
2023-01-28T01:02:52.255Z,1031.7
2023-01-28T01:07:52.035Z,1031.6
2023-01-28T01:12:54.222Z,1031.6
2023-01-28T01:17:51.508Z,1031.5
2023-01-28T01:22:51.309Z,1031.6
2023-01-28T01:27:51.136Z,1031.7
2023-01-28T01:32:50.805Z,1031.6
2023-01-28T01:37:50.565Z,1031.7
2023-01-28T01:42:50.345Z,1031.6
2023-01-28T01:47:50.075Z,1031.8
2023-01-28T01:52:49.877Z,1031.7
2023-01-28T01:57:49.757Z,1031.7
2023-01-28T02:07:51.627Z,1031.7
2023-01-28T02:12:50.839Z,1031.7
2023-01-28T02:17:48.571Z,1031.7
2023-01-28T02:22:48.303Z,1031.7
2023-01-28T02:27:48.065Z,1031.7
2023-01-28T02:32:47.840Z,1031.7
2023-01-28T02:37:47.604Z,1031.8
2023-01-28T02:42:47.369Z,1031.8
2023-01-28T02:47:47.176Z,1031.8
2023-01-28T02:52:47.037Z,1031.9
2023-01-28T03:02:46.499Z,1031.9
2023-01-28T03:07:46.169Z,1031.9
2023-01-28T03:12:45.985Z,1032.0
2023-01-28T03:17:45.767Z,1032.0
2023-01-28T03:22:45.533Z,1032.0
2023-01-28T03:27:45.284Z,1032.0
2023-01-28T03:32:45.071Z,1032.1
2023-01-28T03:37:44.797Z,1032.1
2023-01-28T03:42:44.569Z,1032.2
2023-01-28T03:47:44.705Z,1032.1
2023-01-28T03:57:43.842Z,1032.2
2023-01-28T04:02:43.653Z,1032.2
2023-01-28T04:07:43.466Z,1032.2
2023-01-28T04:12:43.111Z,1032.3
2023-01-28T04:17:42.864Z,1032.3
2023-01-28T04:22:42.639Z,1032.3
2023-01-28T04:27:42.354Z,1032.2
2023-01-28T04:32:42.162Z,1032.3
2023-01-28T04:37:41.904Z,1032.3
2023-01-28T04:42:41.676Z,1032.2
2023-01-28T04:47:41.433Z,1032.2
2023-01-28T04:52:41.249Z,1032.1
2023-01-28T04:57:40.990Z,1032.2
2023-01-28T05:02:40.816Z,1032.2
2023-01-28T05:07:40.557Z,1032.2
2023-01-28T05:12:40.357Z,1032.1
2023-01-28T05:17:40.130Z,1032.1
2023-01-28T05:22:39.881Z,1032.2
2023-01-28T05:27:39.582Z,1032.1
2023-01-28T05:32:39.353Z,1032.2
2023-01-28T05:37:39.093Z,1032.2
2023-01-28T05:42:38.874Z,1032.2
2023-01-28T05:47:38.671Z,1032.4
2023-01-28T05:52:38.462Z,1032.3
2023-01-28T05:57:38.173Z,1032.2
2023-01-28T06:02:37.987Z,1032.3
2023-01-28T06:07:37.734Z,1032.3
2023-01-28T06:12:39.505Z,1032.3
2023-01-28T06:17:37.261Z,1032.3
2023-01-28T06:22:37.058Z,1032.2
2023-01-28T06:27:36.847Z,1032.4
2023-01-28T06:32:36.637Z,1032.5
2023-01-28T06:42:38.643Z,1032.5
2023-01-28T06:47:35.903Z,1032.5
2023-01-28T06:52:35.657Z,1032.4
2023-01-28T06:57:39.422Z,1032.5
2023-01-28T07:02:35.248Z,1032.5
2023-01-28T07:07:34.931Z,1032.4
2023-01-28T07:12:34.783Z,1032.4
2023-01-28T07:22:34.196Z,1032.4
2023-01-28T07:27:34.010Z,1032.4
2023-01-28T07:32:33.734Z,1032.5
2023-01-28T07:37:33.491Z,1032.5
2023-01-28T07:47:33.061Z,1032.6
2023-01-28T07:52:32.851Z,1032.5
2023-01-28T07:57:32.644Z,1032.7
2023-01-28T08:02:32.324Z,1032.8
2023-01-28T08:07:32.056Z,1032.8
2023-01-28T08:12:31.840Z,1032.8
2023-01-28T08:17:33.611Z,1032.8
2023-01-28T08:22:31.370Z,1032.8
2023-01-28T08:37:30.565Z,1032.8
2023-01-28T08:42:30.365Z,1032.9
2023-01-28T08:47:30.083Z,1032.8
2023-01-28T08:52:29.916Z,1032.8
2023-01-28T08:57:29.603Z,1032.8
2023-01-28T09:02:31.982Z,1032.9
2023-01-28T09:07:29.143Z,1033.0
2023-01-28T09:12:28.871Z,1033.0
2023-01-28T09:17:28.634Z,1033.0
2023-01-28T09:22:28.378Z,1033.1
2023-01-28T09:27:28.222Z,1033.1
2023-01-28T09:32:27.915Z,1033.1
2023-01-28T09:42:27.347Z,1033.3
2023-01-28T09:47:27.409Z,1033.3
2023-01-28T09:52:26.938Z,1033.3
2023-01-28T09:57:26.719Z,1033.2
2023-01-28T10:07:26.338Z,1033.2
2023-01-28T10:12:26.123Z,1033.2
2023-01-28T10:17:26.015Z,1033.1
2023-01-28T10:22:25.802Z,1033.0
2023-01-28T10:27:29.707Z,1033.0
2023-01-28T10:32:25.404Z,1033.1
2023-01-28T10:37:25.253Z,1033.1
2023-01-28T10:42:25.091Z,1033.0
2023-01-28T10:47:24.947Z,1032.8
2023-01-28T10:52:24.790Z,1032.7
2023-01-28T10:57:24.855Z,1032.6
2023-01-28T11:02:24.573Z,1032.5
2023-01-28T11:07:24.380Z,1032.5
2023-01-28T11:12:24.239Z,1032.3
2023-01-28T11:17:24.138Z,1032.1
2023-01-28T11:22:24.017Z,1032.2
2023-01-28T11:27:23.893Z,1032.1
2023-01-28T11:32:23.787Z,1032.2
2023-01-28T11:37:25.738Z,1032.2
2023-01-28T11:42:23.617Z,1032.2
2023-01-28T11:47:23.560Z,1032.2
2023-01-28T11:52:23.413Z,1032.2
2023-01-28T11:57:25.524Z,1032.3
2023-01-28T12:02:23.216Z,1032.3
2023-01-28T12:07:23.129Z,1032.4
2023-01-28T12:12:27.513Z,1032.5
2023-01-28T12:17:24.820Z,1032.5
2023-01-28T12:22:22.971Z,1032.5
2023-01-28T12:27:22.752Z,1032.4
2023-01-28T12:32:22.618Z,1032.5
2023-01-28T12:37:22.559Z,1032.5
2023-01-28T12:42:22.424Z,1032.4
2023-01-28T12:47:22.424Z,1032.5
2023-01-28T12:52:24.255Z,1032.4
2023-01-28T12:57:22.322Z,1032.3
2023-01-28T13:02:22.176Z,1032.3
2023-01-28T13:07:22.293Z,1032.2
2023-01-28T13:17:23.846Z,1032.1
2023-01-28T13:22:24.273Z,1032.0
2023-01-28T13:27:21.628Z,1032.0
2023-01-28T13:32:21.519Z,1031.8
2023-01-28T13:37:21.407Z,1031.8
2023-01-28T13:42:21.261Z,1031.7
2023-01-28T13:47:23.168Z,1031.7
2023-01-28T13:52:21.241Z,1031.7
2023-01-28T13:57:21.017Z,1031.7
2023-01-28T14:02:20.943Z,1031.7
2023-01-28T14:07:26.570Z,1031.7
2023-01-28T14:12:20.836Z,1031.6
2023-01-28T14:17:20.741Z,1031.7
2023-01-28T14:22:22.620Z,1031.7
2023-01-28T14:27:23.548Z,1031.6
2023-01-28T14:32:20.502Z,1031.6
2023-01-28T14:42:20.311Z,1031.6
2023-01-28T14:47:20.293Z,1031.6
2023-01-28T14:52:20.211Z,1031.6
2023-01-28T14:57:20.280Z,1031.6
2023-01-28T15:02:20.074Z,1031.6
2023-01-28T15:07:20.157Z,1031.6
2023-01-28T15:22:19.762Z,1031.7
2023-01-28T15:27:19.890Z,1031.8
2023-01-28T15:32:21.636Z,1031.9
2023-01-28T15:37:19.561Z,1031.9
2023-01-28T15:42:19.769Z,1031.9
2023-01-28T15:47:19.418Z,1031.8
2023-01-28T15:52:19.179Z,1031.9
2023-01-28T15:57:19.143Z,1031.9
2023-01-28T16:02:21.044Z,1031.9
2023-01-28T16:07:20.877Z,1031.8
2023-01-28T16:12:18.736Z,1031.9
2023-01-28T16:17:18.605Z,1031.8
2023-01-28T16:22:18.452Z,1031.7
2023-01-28T16:27:18.340Z,1031.7
2023-01-28T16:32:18.181Z,1031.7
2023-01-28T16:37:18.902Z,1031.7
2023-01-28T16:42:22.380Z,1031.7
2023-01-28T16:47:17.854Z,1031.8
2023-01-28T16:52:17.834Z,1031.8
2023-01-28T16:57:17.673Z,1031.9
2023-01-28T17:02:17.545Z,1031.8
2023-01-28T17:07:17.619Z,1032.0
2023-01-28T17:12:17.315Z,1032.1
2023-01-28T17:17:17.215Z,1032.1
2023-01-28T17:22:17.067Z,1032.0
2023-01-28T17:27:16.964Z,1032.0
2023-01-28T17:32:16.854Z,1032.1
2023-01-28T17:37:16.749Z,1032.0
2023-01-28T17:42:16.612Z,1032.0
2023-01-28T17:47:16.509Z,1032.0
2023-01-28T17:57:16.288Z,1032.0
2023-01-28T18:02:16.285Z,1032.0
2023-01-28T18:07:16.107Z,1032.0
2023-01-28T18:12:16.020Z,1032.0
2023-01-28T18:17:15.906Z,1032.0
2023-01-28T18:22:15.836Z,1032.0
2023-01-28T18:27:15.609Z,1032.0
2023-01-28T18:32:15.524Z,1032.0
2023-01-28T18:37:15.368Z,1032.0
2023-01-28T18:42:15.252Z,1032.0
2023-01-28T18:47:15.065Z,1031.9
2023-01-28T18:52:14.972Z,1031.9
2023-01-28T18:57:14.796Z,1032.0
2023-01-28T19:02:14.800Z,1031.9
2023-01-28T19:07:14.525Z,1031.9
2023-01-28T19:12:14.424Z,1031.8
2023-01-28T19:17:14.311Z,1031.8
2023-01-28T19:22:14.177Z,1031.8
2023-01-28T19:32:13.933Z,1031.8
2023-01-28T19:37:13.751Z,1031.9
2023-01-28T19:42:13.636Z,1031.9
2023-01-28T19:47:13.501Z,1031.9
2023-01-28T19:52:13.357Z,1032.0
2023-01-28T19:57:13.168Z,1032.0
2023-01-28T20:02:13.139Z,1031.9
2023-01-28T20:07:12.855Z,1032.0
2023-01-28T20:12:15.232Z,1032.0
2023-01-28T20:17:12.608Z,1032.0
2023-01-28T20:22:14.415Z,1031.9
2023-01-28T20:27:12.298Z,1031.9
2023-01-28T20:32:17.801Z,1031.8
2023-01-28T20:37:12.058Z,1031.8
2023-01-28T20:42:11.904Z,1031.8
2023-01-28T20:47:11.795Z,1031.8
2023-01-28T20:52:11.682Z,1031.9
2023-01-28T20:57:11.460Z,1032.0
2023-01-28T21:02:11.346Z,1032.1
2023-01-28T21:07:11.227Z,1032.2
2023-01-28T21:12:11.048Z,1032.1
2023-01-28T21:17:10.872Z,1032.1
2023-01-28T21:22:10.722Z,1032.1
2023-01-28T21:27:10.521Z,1032.2
2023-01-28T21:32:10.466Z,1032.0
2023-01-28T21:37:10.345Z,1031.9
2023-01-28T21:42:10.386Z,1031.9
2023-01-28T21:47:09.940Z,1031.9
2023-01-28T21:52:09.832Z,1031.9
2023-01-28T21:57:09.637Z,1031.7
2023-01-28T22:02:09.471Z,1031.8
2023-01-28T22:07:09.303Z,1031.8
2023-01-28T22:12:09.148Z,1031.7
2023-01-28T22:17:09.136Z,1031.7
2023-01-28T22:22:08.863Z,1031.8
2023-01-28T22:27:10.888Z,1031.7
2023-01-28T22:32:09.067Z,1031.7
2023-01-28T22:37:08.450Z,1031.7
2023-01-28T22:42:08.189Z,1031.7
2023-01-28T22:47:07.997Z,1031.7
2023-01-28T22:52:07.865Z,1031.6
2023-01-28T22:57:07.682Z,1031.7
2023-01-28T23:02:07.504Z,1031.7
2023-01-28T23:07:07.331Z,1031.7
2023-01-28T23:12:09.220Z,1031.7
2023-01-28T23:17:09.092Z,1031.8
2023-01-28T23:22:08.813Z,1031.8
2023-01-28T23:27:06.628Z,1031.6
2023-01-28T23:32:06.499Z,1031.3
2023-01-28T23:37:06.297Z,1031.4
2023-01-28T23:47:06.003Z,1031.2
2023-01-28T23:52:05.786Z,1031.3
2023-01-28T23:57:05.531Z,1031.3
